Time;durP1;ratioP1;P1;durP2;ratioP2;P2;SDS_P1;SDS_P2;PMS_P1;PMS_P2;Temp;Humidity;BMP_temperature;BMP_pressure;BME280_temperature;BME280_humidity;BME280_pressure;Samples;Min_cycle;Max_cycle;Signal;HPM_P1;HPM_P2
2023/07/29 00:27:40;;;;;;;;;;;;;;;19.37;89.33;99344.72;1073636;46;20652;-87
2023/07/29 00:38:03;;;;;;;;;;;;;;;19.37;88.49;99333.88;1080016;54;19927;-87
2023/07/29 00:39:13;;;;;;;;;;;;;;;19.36;88.34;99340.38;1088584;47;19949;-88
2023/07/29 00:40:18;;;;;;;;;;;;;;;19.39;88.43;99339.94;1088449;47;19939;-85
2023/07/29 00:41:23;;;;;;;;;;;;;;;19.39;88.26;99339.94;1088572;47;19938;-85
2023/07/29 00:42:38;;;;;;;;;;;;;;;19.38;88.04;99338.25;1088541;54;19926;-86
2023/07/29 00:43:53;;;;;;;;;;;;;;;19.41;88.21;99340.53;1088455;47;19939;-87
2023/07/29 00:50:43;;;;;;;;;;;;;;;19.44;87.47;99326.56;1088707;54;19939;-87
2023/07/29 00:51:44;;;;;;;;;;;;;;;19.46;87.89;99334.47;1096131;39;20803;-87
2023/07/29 00:52:47;;;;;;;;;;;;;;;19.48;87.77;99333.19;1088499;47;19923;-88
2023/07/29 00:53:51;;;;;;;;;;;;;;;19.49;87.68;99332.13;1088341;54;20686;-86
2023/07/29 00:54:54;;;;;;;;;;;;;;;19.51;87.22;99325.66;1088264;47;19939;-86
2023/07/29 00:56:04;;;;;;;;;;;;;;;19.48;87.41;99340.50;1088560;54;19934;-87
2023/07/29 01:07:38;;;;;;;;;;;;;;;19.48;87.14;99319.63;1088396;47;20014;-85
2023/07/29 01:08:56;;;;;;;;;;;;;;;19.52;87.20;99313.78;1088460;47;19990;-85
2023/07/29 01:10:10;;;;;;;;;;;;;;;19.49;86.90;99305.03;1088302;46;19935;-85
2023/07/29 01:11:20;;;;;;;;;;;;;;;19.50;86.83;99305.88;1088395;47;19962;-86
2023/07/29 01:22:10;;;;;;;;;;;;;;;19.47;86.54;99293.56;1088461;54;19919;-88
2023/07/29 01:23:26;;;;;;;;;;;;;;;19.46;86.94;99294.63;1088217;47;19964;-86
2023/07/29 01:24:31;;;;;;;;;;;;;;;19.45;86.95;99298.41;1088156;46;19923;-88
2023/07/29 01:25:31;;;;;;;;;;;;;;;19.47;86.73;99295.47;1088217;47;19923;-84
2023/07/29 01:26:35;;;;;;;;;;;;;;;19.47;86.91;99295.47;1087920;46;19946;-83
2023/07/29 01:27:45;;;;;;;;;;;;;;;19.48;86.43;99292.53;1091328;39;20721;-87
2023/07/29 01:29:00;;;;;;;;;;;;;;;19.43;86.34;99299.66;1087951;47;19946;-83
2023/07/29 01:30:14;;;;;;;;;;;;;;;19.46;86.84;99296.53;1088400;54;19923;-86
2023/07/29 01:31:29;;;;;;;;;;;;;;;19.44;86.33;99290.47;1088308;47;19923;-85
2023/07/29 01:36:22;;;;;;;;;;;;;;;19.52;86.18;99281.25;1088730;47;19963;-87
2023/07/29 01:37:34;;;;;;;;;;;;;;;19.52;85.66;99275.84;1088515;47;19932;-85
2023/07/29 01:46:39;;;;;;;;;;;;;;;19.45;85.59;99284.03;1088331;54;19926;-83
2023/07/29 01:52:01;;;;;;;;;;;;;;;19.46;85.38;99282.97;1088317;47;19979;-82
2023/07/29 01:53:43;;;;;;;;;;;;;;;19.40;85.91;99278.44;1088127;54;19943;-85
2023/07/29 02:06:36;;;;;;;;;;;;;;;19.38;85.52;99275.94;1089417;46;19978;-85
2023/07/29 02:11:44;;;;;;;;;;;;;;;19.37;85.01;99265.34;1087507;54;19927;-86
2023/07/29 02:13:02;;;;;;;;;;;;;;;;;;;;;
2023/07/29 02:23:44;;;;;;;;;;;;;;;19.40;85.02;99263.00;1086711;54;19934;-88
2023/07/29 02:24:49;;;;;;;;;;;;;;;19.39;85.06;99253.22;1084336;46;20006;-83
2023/07/29 02:33:55;;;;;;;;;;;;;;;19.30;85.10;99265.38;1087855;54;19967;-86
2023/07/29 02:36:46;;;;;;;;;;;;;;;;;;;;;
2023/07/29 02:50:51;;;;;;;;;;;;;;;19.37;84.37;99268.84;1087458;54;19939;-84
2023/07/29 02:52:08;;;;;;;;;;;;;;;19.38;84.54;99264.28;1084626;47;19955;-81
2023/07/29 02:55:45;;;;;;;;;;;;;;;19.39;84.19;99258.63;1088663;54;19967;-85
2023/07/29 03:02:58;;;;;;;;;;;;;;;19.46;83.42;99247.75;1087533;47;19970;-86
2023/07/29 03:03:59;;;;;;;;;;;;;;;19.44;83.64;99245.25;1087259;47;19950;-84
2023/07/29 03:05:04;;;;;;;;;;;;;;;19.45;83.65;99244.22;1087078;47;19945;-83
2023/07/29 03:07:40;;;;;;;;;;;;;;;19.44;83.69;99231.72;1088103;54;20014;-85
2023/07/29 03:08:50;;;;;;;;;;;;;;;19.38;83.49;99239.91;1087369;47;19939;-86
2023/07/29 03:09:54;;;;;;;;;;;;;;;19.33;83.98;99238.66;1087950;47;19947;-83
2023/07/29 03:11:10;;;;;;;;;;;;;;;19.31;83.62;99234.53;1087696;47;19956;-86
2023/07/29 03:12:26;;;;;;;;;;;;;;;19.34;83.88;99236.81;1088048;54;19927;-86
2023/07/29 03:14:21;;;;;;;;;;;;;;;;;;;;;
2023/07/29 03:19:50;;;;;;;;;;;;;;;19.40;83.44;99229.66;1087743;54;20044;-84
2023/07/29 03:20:55;;;;;;;;;;;;;;;19.29;83.42;99226.63;1086993;47;19934;-83
2023/07/29 03:22:00;;;;;;;;;;;;;;;19.35;83.33;99216.78;1086966;47;19951;-82
2023/07/29 03:23:01;;;;;;;;;;;;;;;19.37;83.14;99214.66;1087451;47;19946;-83
2023/07/29 03:24:12;;;;;;;;;;;;;;;19.39;83.42;99220.69;1087520;47;20014;-84
2023/07/29 03:25:13;;;;;;;;;;;;;;;19.38;83.04;99219.03;1088039;54;19973;-84
2023/07/29 03:35:05;;;;;;;;;;;;;;;19.33;83.05;99216.19;1087555;54;20799;-83
2023/07/29 03:36:19;;;;;;;;;;;;;;;19.31;83.31;99215.56;1087062;47;19946;-82
2023/07/29 03:37:23;;;;;;;;;;;;;;;19.25;83.50;99216.47;1087255;54;20514;-84
2023/07/29 03:46:01;;;;;;;;;;;;;;;19.18;83.93;99214.63;1087785;54;19939;-86
2023/07/29 03:47:29;;;;;;;;;;;;;;;19.17;84.09;99220.25;1089375;39;20489;-83
2023/07/29 03:50:28;;;;;;;;;;;;;;;19.07;85.15;99228.06;1087869;47;19926;-85
2023/07/29 03:55:29;;;;;;;;;;;;;;;19.10;85.07;99211.38;1087842;54;19991;-83
2023/07/29 03:56:36;;;;;;;;;;;;;;;19.12;84.81;99210.09;1087764;54;19969;-83
2023/07/29 04:03:12;;;;;;;;;;;;;;;19.23;84.56;99203.13;1087631;47;20733;-83
2023/07/29 04:04:19;;;;;;;;;;;;;;;19.26;84.25;99199.97;1087886;47;20015;-84
2023/07/29 04:11:58;;;;;;;;;;;;;;;19.25;83.88;99216.47;1087461;54;19947;-81
2023/07/29 04:12:59;;;;;;;;;;;;;;;19.16;84.26;99207.78;1086470;47;19947;-80
2023/07/29 04:14:02;;;;;;;;;;;;;;;19.18;84.43;99217.31;1087419;54;19967;-82
2023/07/29 04:15:07;;;;;;;;;;;;;;;19.12;84.48;99215.50;1086732;47;19939;-85
2023/07/29 04:16:11;;;;;;;;;;;;;;;19.16;84.71;99216.75;1087197;47;19946;-82
2023/07/29 04:17:11;;;;;;;;;;;;;;;19.11;84.69;99211.16;1086324;47;19958;-82
2023/07/29 04:18:15;;;;;;;;;;;;;;;19.15;84.37;99216.94;1086548;47;19969;-83
2023/07/29 04:19:17;;;;;;;;;;;;;;;19.17;84.46;99204.00;1086273;47;19950;-82
2023/07/29 04:20:20;;;;;;;;;;;;;;;19.23;84.14;99205.81;1086749;39;20584;-82
2023/07/29 04:21:21;;;;;;;;;;;;;;;19.25;84.02;99195.59;1086244;47;19972;-81
2023/07/29 04:22:26;;;;;;;;;;;;;;;19.25;83.94;99198.31;1086432;47;20633;-82
2023/07/29 04:23:27;;;;;;;;;;;;;;;19.21;84.32;99199.81;1086322;47;19946;-83
2023/07/29 04:24:30;;;;;;;;;;;;;;;19.24;84.16;99196.66;1086632;54;19942;-83
2023/07/29 04:25:31;;;;;;;;;;;;;;;19.28;83.74;99197.03;1087595;39;20257;-82
2023/07/29 04:26:34;;;;;;;;;;;;;;;19.24;83.87;99198.53;1086385;47;20046;-82
2023/07/29 04:27:38;;;;;;;;;;;;;;;19.24;83.95;99202.06;1086808;47;19962;-84
2023/07/29 04:28:41;;;;;;;;;;;;;;;19.29;83.95;99195.97;1086840;54;19947;-82
2023/07/29 04:29:42;;;;;;;;;;;;;;;19.32;83.48;99196.38;1087293;47;20029;-84
2023/07/29 04:30:52;;;;;;;;;;;;;;;19.28;83.64;99197.03;1087137;47;19986;-83
2023/07/29 04:31:53;;;;;;;;;;;;;;;19.19;84.22;99207.34;1087056;47;19946;-83
2023/07/29 04:32:57;;;;;;;;;;;;;;;19.20;84.33;99209.00;1087337;47;19938;-83
2023/07/29 04:33:59;;;;;;;;;;;;;;;19.26;84.41;99213.53;1087475;54;19950;-84
2023/07/29 04:35:09;;;;;;;;;;;;;;;19.25;84.44;99216.47;1087943;54;19994;-86
2023/07/29 04:36:11;;;;;;;;;;;;;;;19.26;83.84;99221.66;1087143;54;20722;-83
2023/07/29 04:37:14;;;;;;;;;;;;;;;19.21;84.63;99223.34;1087209;47;19938;-83
2023/07/29 04:38:17;;;;;;;;;;;;;;;19.25;84.42;99224.59;1086681;47;19974;-83
2023/07/29 04:39:21;;;;;;;;;;;;;;;19.25;84.47;99227.28;1086203;47;19954;-83
2023/07/29 04:40:22;;;;;;;;;;;;;;;19.20;84.75;99229.81;1086551;47;19999;-83
2023/07/29 04:41:26;;;;;;;;;;;;;;;19.13;85.44;99236.13;1086534;47;20058;-83
2023/07/29 04:42:26;;;;;;;;;;;;;;;19.08;85.87;99244.06;1086092;46;19951;-80
2023/07/29 04:43:33;;;;;;;;;;;;;;;19.06;86.08;99250.78;1086647;47;19972;-85
2023/07/29 04:49:24;;;;;;;;;;;;;;;18.85;90.09;99266.28;1087725;54;19951;-85
2023/07/29 04:50:29;;;;;;;;;;;;;;;18.84;90.52;99268.19;1088306;47;19938;-88
2023/07/29 04:55:27;;;;;;;;;;;;;;;18.69;92.17;99273.06;1087847;54;19949;-84
2023/07/29 04:57:06;;;;;;;;;;;;;;;18.65;92.87;99272.69;1087752;47;19967;-83
2023/07/29 04:58:11;;;;;;;;;;;;;;;18.63;93.62;99271.22;1087580;47;20046;-84
2023/07/29 05:02:59;;;;;;;;;;;;;;;18.52;95.13;99249.19;1088097;54;19931;-85
2023/07/29 05:04:03;;;;;;;;;;;;;;;18.49;95.86;99246.09;1087705;54;19949;-85
2023/07/29 05:14:26;;;;;;;;;;;;;;;18.24;99.83;99244.97;1087659;47;20563;-84
2023/07/29 05:15:27;;;;;;;;;;;;;;;18.14;100.00;99250.00;1088375;47;20595;-86
2023/07/29 05:16:33;;;;;;;;;;;;;;;18.21;100.00;99258.09;1087866;47;19934;-84
2023/07/29 05:17:45;;;;;;;;;;;;;;;18.22;99.97;99254.34;1088482;54;19933;-86
2023/07/29 05:18:53;;;;;;;;;;;;;;;18.24;99.59;99269.31;1088151;47;20687;-84
2023/07/29 05:20:17;;;;;;;;;;;;;;;18.27;99.98;99278.91;1088190;46;19938;-86
2023/07/29 05:21:22;;;;;;;;;;;;;;;18.31;100.00;99287.41;1088151;46;19948;-86
2023/07/29 05:32:01;;;;;;;;;;;;;;;;;;;;;
2023/07/29 05:45:53;;;;;;;;;;;;;;;18.69;98.56;99225.16;1087833;54;19938;-83
2023/07/29 05:47:30;;;;;;;;;;;;;;;18.68;97.97;99228.09;1088125;46;19939;-83
2023/07/29 05:48:32;;;;;;;;;;;;;;;18.71;97.79;99231.19;1088060;46;19939;-85
2023/07/29 05:49:44;;;;;;;;;;;;;;;18.74;98.12;99231.81;1088354;47;19941;-85
2023/07/29 05:50:53;;;;;;;;;;;;;;;18.76;97.98;99245.94;1088208;54;19958;-86
2023/07/29 05:51:59;;;;;;;;;;;;;;;18.74;98.29;99242.66;1088128;47;19930;-87
2023/07/29 05:53:00;;;;;;;;;;;;;;;18.74;98.45;99243.47;1088257;46;19973;-85
2023/07/29 05:54:03;;;;;;;;;;;;;;;18.74;98.60;99243.47;1088040;47;19923;-84
2023/07/29 05:55:06;;;;;;;;;;;;;;;18.74;98.43;99242.66;1097236;39;20564;-86
2023/07/29 05:56:18;;;;;;;;;;;;;;;18.74;98.23;99243.47;1088315;46;20624;-86
2023/07/29 05:57:29;;;;;;;;;;;;;;;18.72;98.23;99248.25;1088192;54;19965;-84
2023/07/29 05:58:34;;;;;;;;;;;;;;;18.74;98.30;99245.34;1087842;47;19962;-83
2023/07/29 05:59:37;;;;;;;;;;;;;;;18.77;98.10;99253.88;1093807;39;20413;-86
2023/07/29 06:00:41;;;;;;;;;;;;;;;18.74;97.83;99251.59;1087213;47;19989;-83
2023/07/29 06:01:45;;;;;;;;;;;;;;;18.68;99.11;99255.16;1087468;47;19938;-82
2023/07/29 06:02:51;;;;;;;;;;;;;;;18.69;98.84;99252.25;1087782;47;19939;-86
2023/07/29 06:04:28;;;;;;;;;;;;;;;18.72;98.62;99250.97;1087878;54;19947;-87
2023/07/29 06:05:51;;;;;;;;;;;;;;;;;;;;;
2023/07/29 06:09:01;;;;;;;;;;;;;;;18.79;98.20;99249.06;1087929;54;19939;-83
2023/07/29 06:10:20;;;;;;;;;;;;;;;18.81;98.80;99244.25;1087410;54;19988;-83
2023/07/29 06:11:24;;;;;;;;;;;;;;;18.78;98.84;99233.88;1087368;54;19969;-82
2023/07/29 06:12:31;;;;;;;;;;;;;;;18.81;98.33;99238.81;1087420;47;19942;-82
2023/07/29 06:13:48;;;;;;;;;;;;;;;18.85;98.18;99237.34;1088004;47;19989;-83
2023/07/29 06:16:35;;;;;;;;;;;;;;;18.97;98.01;99231.28;1087610;47;19930;-83
2023/07/29 06:19:25;;;;;;;;;;;;;;;19.07;97.55;99223.50;1087188;54;19964;-83
2023/07/29 06:20:42;;;;;;;;;;;;;;;19.06;97.66;99229.09;1087342;47;19946;-82
2023/07/29 06:21:45;;;;;;;;;;;;;;;19.09;97.72;99226.78;1087377;54;19998;-82
2023/07/29 06:22:50;;;;;;;;;;;;;;;19.13;97.36;99229.88;1087627;47;19951;-83
2023/07/29 06:26:49;;;;;;;;;;;;;;;19.17;97.23;99225.69;1087660;54;19946;-82
2023/07/29 06:27:53;;;;;;;;;;;;;;;19.15;97.28;99227.78;1087113;47;19927;-81
2023/07/29 06:28:57;;;;;;;;;;;;;;;19.16;97.60;99230.28;1086533;54;19953;-82
2023/07/29 06:30:05;;;;;;;;;;;;;;;19.20;97.04;99224.41;1087079;54;20245;-80
2023/07/29 06:31:09;;;;;;;;;;;;;;;19.21;97.14;99226.06;1086976;54;20592;-83
2023/07/29 06:32:10;;;;;;;;;;;;;;;19.24;96.73;99221.03;1087775;47;19939;-85
2023/07/29 06:33:13;;;;;;;;;;;;;;;19.27;97.01;99225.19;1086904;54;19969;-83
2023/07/29 06:34:14;;;;;;;;;;;;;;;19.30;96.95;99222.03;1087821;54;19942;-83
2023/07/29 06:35:18;;;;;;;;;;;;;;;19.35;96.51;99235.75;1087190;47;19927;-84
2023/07/29 06:36:19;;;;;;;;;;;;;;;19.36;96.17;99232.00;1086986;47;19970;-80
2023/07/29 06:37:22;;;;;;;;;;;;;;;19.29;96.81;99239.34;1087556;47;19939;-82
2023/07/29 06:38:23;;;;;;;;;;;;;;;19.38;96.38;99240.72;1086922;46;19939;-82
2023/07/29 06:39:26;;;;;;;;;;;;;;;19.41;95.42;99232.16;1087218;47;19973;-80
2023/07/29 06:40:28;;;;;;;;;;;;;;;19.46;95.53;99240.44;1087079;47;19930;-83
2023/07/29 06:41:32;;;;;;;;;;;;;;;19.43;96.24;99243.59;1087703;54;20057;-80
2023/07/29 06:42:56;;;;;;;;;;;;;;;;;;;;;
2023/07/29 06:44:04;;;;;;;;;;;;;;;19.54;95.29;99243.91;1087188;47;19950;-84
2023/07/29 06:45:26;;;;;;;;;;;;;;;19.57;95.16;99251.59;1087556;54;19942;-82
2023/07/29 06:46:29;;;;;;;;;;;;;;;19.62;95.19;99251.75;1087077;46;19954;-80
2023/07/29 06:47:30;;;;;;;;;;;;;;;19.62;95.25;99263.41;1087145;54;19970;-83
2023/07/29 06:48:34;;;;;;;;;;;;;;;19.59;95.59;99254.91;1087655;46;19939;-83
2023/07/29 06:49:35;;;;;;;;;;;;;;;19.63;95.25;99262.38;1087158;47;19945;-81
2023/07/29 06:50:47;;;;;;;;;;;;;;;19.66;94.80;99252.97;1086938;47;19938;-84
2023/07/29 06:52:02;;;;;;;;;;;;;;;19.73;94.84;99258.31;1087318;47;19946;-84
2023/07/29 06:53:06;;;;;;;;;;;;;;;19.69;95.06;99267.97;1087446;47;19950;-85
2023/07/29 06:54:10;;;;;;;;;;;;;;;19.68;94.88;99264.41;1087634;47;19927;-83
2023/07/29 06:55:13;;;;;;;;;;;;;;;19.72;94.96;99260.22;1087515;47;19942;-81
2023/07/29 06:56:14;;;;;;;;;;;;;;;19.68;94.18;99256.28;1087615;54;19943;-83
2023/07/29 06:57:46;;;;;;;;;;;;;;;19.62;94.45;99262.59;1087528;54;19927;-85
2023/07/29 07:00:19;;;;;;;;;;;;;;;19.72;93.94;99259.38;1087942;47;19990;-83
2023/07/29 07:01:22;;;;;;;;;;;;;;;19.77;94.08;99256.84;1087964;47;19938;-86
2023/07/29 07:02:27;;;;;;;;;;;;;;;19.78;94.11;99259.31;1086677;54;19950;-84
2023/07/29 07:03:44;;;;;;;;;;;;;;;;;;;;;
2023/07/29 07:05:10;;;;;;;;;;;;;;;19.84;93.73;99265.72;1088105;54;19927;-81
2023/07/29 07:12:51;;;;;;;;;;;;;;;19.99;93.49;99264.53;1088421;54;19931;-84
2023/07/29 07:14:00;;;;;;;;;;;;;;;20.01;93.53;99260.56;1088002;47;19923;-86
2023/07/29 07:15:03;;;;;;;;;;;;;;;19.98;93.38;99262.91;1088139;54;19965;-86
2023/07/29 07:16:06;;;;;;;;;;;;;;;19.96;93.11;99268.53;1088157;47;19947;-88
2023/07/29 07:17:17;;;;;;;;;;;;;;;19.99;93.11;99268.09;1089529;39;21069;-85
2023/07/29 07:18:18;;;;;;;;;;;;;;;19.99;93.07;99265.38;1088039;54;19957;-85
2023/07/29 07:19:21;;;;;;;;;;;;;;;19.99;93.44;99272.66;1087935;47;19939;-87
2023/07/29 07:20:23;;;;;;;;;;;;;;;19.92;93.52;99279.00;1089117;39;20622;-87
2023/07/29 07:21:28;;;;;;;;;;;;;;;19.93;93.45;99277.97;1088155;54;20597;-86
2023/07/29 07:22:29;;;;;;;;;;;;;;;19.90;93.73;99277.59;1088117;47;19938;-87
2023/07/29 07:23:32;;;;;;;;;;;;;;;19.89;94.21;99279.44;1087936;47;19975;-85
2023/07/29 07:24:33;;;;;;;;;;;;;;;19.85;94.18;99280.97;1088044;47;19947;-87
2023/07/29 07:25:37;;;;;;;;;;;;;;;19.89;94.18;99284.06;1088109;54;19949;-86
2023/07/29 07:26:40;;;;;;;;;;;;;;;19.85;94.34;99272.84;1087976;54;19943;-84
2023/07/29 07:27:47;;;;;;;;;;;;;;;19.86;94.51;99277.22;1089281;39;20545;-86
2023/07/29 07:28:48;;;;;;;;;;;;;;;19.85;94.61;99269.25;1087864;47;19982;-86
2023/07/29 07:29:52;;;;;;;;;;;;;;;19.82;94.84;99270.53;1087931;47;19950;-86
2023/07/29 07:30:55;;;;;;;;;;;;;;;19.86;94.37;99271.78;1087270;54;20006;-82
2023/07/29 07:32:02;;;;;;;;;;;;;;;19.90;94.29;99277.59;1087748;54;19973;-86
2023/07/29 07:33:03;;;;;;;;;;;;;;;19.91;94.43;99276.53;1087522;47;19942;-85
2023/07/29 07:34:07;;;;;;;;;;;;;;;19.92;94.59;99280.91;1088087;54;19943;-85
2023/07/29 07:37:38;;;;;;;;;;;;;;;19.90;94.33;99275.69;1088227;54;19939;-84
2023/07/29 07:38:39;;;;;;;;;;;;;;;19.96;94.51;99276.66;1087916;47;19939;-81
2023/07/29 07:39:51;;;;;;;;;;;;;;;19.93;94.12;99274.44;1087949;47;19977;-86
2023/07/29 07:40:55;;;;;;;;;;;;;;;19.97;93.88;99274.81;1087788;47;19939;-82
2023/07/29 07:41:59;;;;;;;;;;;;;;;20.04;93.83;99278.28;1087411;47;19929;-82
2023/07/29 07:42:59;;;;;;;;;;;;;;;20.09;93.04;99272.97;1087109;47;19987;-82
2023/07/29 07:44:03;;;;;;;;;;;;;;;20.12;92.97;99274.44;1086760;47;19953;-80
2023/07/29 07:45:04;;;;;;;;;;;;;;;20.15;92.70;99273.97;1088907;31;20592;-80
2023/07/29 07:46:08;;;;;;;;;;;;;;;20.18;91.84;99273.53;1086419;47;20599;-82
2023/07/29 07:47:11;;;;;;;;;;;;;;;20.17;92.13;99263.72;1086988;54;20014;-81
2023/07/29 07:49:16;;;;;;;;;;;;;;;20.23;91.31;99260.09;1087346;54;19954;-85
2023/07/29 07:50:17;;;;;;;;;;;;;;;20.27;91.39;99258.59;1088123;47;19934;-85
2023/07/29 07:51:21;;;;;;;;;;;;;;;20.21;91.80;99259.50;1087482;54;19933;-84
2023/07/29 07:53:31;;;;;;;;;;;;;;;20.30;91.22;99260.00;1088391;54;19942;-84
2023/07/29 07:54:32;;;;;;;;;;;;;;;20.28;91.03;99254.81;1087604;47;19938;-84
2023/07/29 07:55:33;;;;;;;;;;;;;;;20.27;91.09;99256.69;1087717;47;19939;-87
2023/07/29 07:57:46;;;;;;;;;;;;;;;20.31;91.26;99272.53;1088197;54;20663;-87
2023/07/29 07:58:47;;;;;;;;;;;;;;;20.29;91.34;99263.78;1091614;39;20492;-87
2023/07/29 07:59:52;;;;;;;;;;;;;;;20.26;91.66;99265.06;1087658;54;19951;-83
2023/07/29 08:01:00;;;;;;;;;;;;;;;20.29;91.72;99263.78;1087872;54;19939;-81
2023/07/29 08:02:04;;;;;;;;;;;;;;;20.30;91.23;99269.00;1096640;31;20856;-84
2023/07/29 08:03:07;;;;;;;;;;;;;;;20.38;90.76;99260.53;1087888;54;19943;-85
2023/07/29 08:04:10;;;;;;;;;;;;;;;20.41;90.78;99264.69;1088070;54;19950;-87
2023/07/29 08:05:11;;;;;;;;;;;;;;;20.45;90.64;99263.16;1091942;39;20375;-86
2023/07/29 08:06:16;;;;;;;;;;;;;;;20.47;90.99;99265.66;1087877;47;19950;-84
2023/07/29 08:07:18;;;;;;;;;;;;;;;20.47;90.50;99265.66;1088086;47;19958;-84
2023/07/29 08:08:22;;;;;;;;;;;;;;;20.57;90.18;99266.75;1088027;46;19939;-85
2023/07/29 08:09:24;;;;;;;;;;;;;;;20.62;89.89;99259.81;1087733;46;19962;-84
2023/07/29 08:10:28;;;;;;;;;;;;;;;20.70;88.94;99263.03;1087486;54;19961;-81
2023/07/29 08:11:29;;;;;;;;;;;;;;;20.60;88.87;99259.22;1087641;47;19970;-85
2023/07/29 08:12:32;;;;;;;;;;;;;;;20.74;88.59;99260.69;1087384;47;19962;-82
2023/07/29 08:13:33;;;;;;;;;;;;;;;20.80;88.15;99259.78;1087905;47;19946;-84
2023/07/29 08:14:37;;;;;;;;;;;;;;;20.84;87.83;99262.88;1087365;54;19949;-84
2023/07/29 08:15:37;;;;;;;;;;;;;;;20.84;87.25;99260.97;1087508;54;20021;-84
2023/07/29 08:16:41;;;;;;;;;;;;;;;20.92;87.33;99248.13;1087709;54;19939;-86
2023/07/29 08:17:41;;;;;;;;;;;;;;;20.95;86.47;99251.22;1087002;47;19946;-80
2023/07/29 08:18:47;;;;;;;;;;;;;;;21.00;86.48;99254.06;1087052;47;19962;-84
2023/07/29 08:19:48;;;;;;;;;;;;;;;21.09;86.45;99245.56;1087190;54;19943;-83
2023/07/29 08:21:54;;;;;;;;;;;;;;;21.21;86.28;99245.59;1088200;54;19970;-88
2023/07/29 08:22:55;;;;;;;;;;;;;;;21.27;85.35;99245.47;1088346;54;19950;-86
2023/07/29 08:24:01;;;;;;;;;;;;;;;21.29;85.03;99250.69;1088403;54;19943;-87
2023/07/29 08:28:23;;;;;;;;;;;;;;;21.40;83.94;99257.19;1087415;47;19943;-88
2023/07/29 08:29:24;;;;;;;;;;;;;;;21.43;83.68;99245.84;1087895;54;19998;-84
2023/07/29 08:30:27;;;;;;;;;;;;;;;21.45;83.59;99249.97;1087549;47;19957;-85
2023/07/29 08:31:28;;;;;;;;;;;;;;;21.46;82.31;99256.22;1087455;54;20028;-82
2023/07/29 08:32:31;;;;;;;;;;;;;;;21.43;82.04;99262.16;1092996;39;20969;-83
2023/07/29 08:33:33;;;;;;;;;;;;;;;21.47;81.82;99266.06;1087949;54;19943;-85
2023/07/29 08:34:39;;;;;;;;;;;;;;;21.45;82.33;99262.72;1087966;54;19942;-86
2023/07/29 08:35:40;;;;;;;;;;;;;;;21.44;82.57;99271.97;1087376;47;19954;-84
2023/07/29 08:36:43;;;;;;;;;;;;;;;21.42;82.56;99268.66;1092024;39;20945;-85
2023/07/29 08:37:44;;;;;;;;;;;;;;;21.30;83.50;99269.47;1086959;54;19946;-82
2023/07/29 08:38:47;;;;;;;;;;;;;;;21.23;82.82;99276.91;1087206;47;19967;-83
2023/07/29 08:39:48;;;;;;;;;;;;;;;21.18;82.84;99279.47;1087130;47;20994;-83
2023/07/29 08:40:55;;;;;;;;;;;;;;;21.18;83.58;99293.06;1087289;54;19998;-81
2023/07/29 08:42:00;;;;;;;;;;;;;;;21.16;83.90;99293.31;1087379;54;19942;-83
2023/07/29 08:43:06;;;;;;;;;;;;;;;21.24;83.78;99291.31;1086914;47;19965;-82
2023/07/29 08:44:09;;;;;;;;;;;;;;;21.30;83.49;99290.41;1087214;54;19958;-82
2023/07/29 08:45:11;;;;;;;;;;;;;;;21.28;83.63;99292.50;1087457;54;19943;-83
2023/07/29 08:46:15;;;;;;;;;;;;;;;21.30;83.70;99296.66;1087322;54;20006;-84
2023/07/29 08:47:17;;;;;;;;;;;;;;;21.31;83.40;99294.75;1087449;54;19943;-83
2023/07/29 08:48:22;;;;;;;;;;;;;;;21.21;83.97;99297.22;1087154;47;19973;-84
2023/07/29 08:49:23;;;;;;;;;;;;;;;21.23;84.15;99295.94;1087253;54;19973;-82
2023/07/29 08:50:29;;;;;;;;;;;;;;;21.26;83.98;99295.44;1087472;54;20539;-82
2023/07/29 08:51:31;;;;;;;;;;;;;;;21.28;83.99;99296.03;1087439;54;19966;-82
2023/07/29 08:52:35;;;;;;;;;;;;;;;21.29;84.18;99299.63;1087195;54;19954;-81
2023/07/29 08:53:36;;;;;;;;;;;;;;;21.33;83.63;99301.63;1087371;54;20038;-80
2023/07/29 08:54:40;;;;;;;;;;;;;;;21.42;83.83;99304.00;1087218;47;19946;-84
2023/07/29 08:55:41;;;;;;;;;;;;;;;21.37;83.86;99291.09;1087198;54;19942;-85
2023/07/29 08:56:44;;;;;;;;;;;;;;;21.44;83.77;99297.25;1088357;39;20124;-84
2023/07/29 08:57:46;;;;;;;;;;;;;;;21.49;83.40;99305.53;1087296;47;20671;-84
2023/07/29 08:58:50;;;;;;;;;;;;;;;21.57;83.20;99296.19;1087008;54;19946;-83
2023/07/29 08:59:50;;;;;;;;;;;;;;;21.63;83.04;99298.00;1087172;47;19971;-83
2023/07/29 09:00:54;;;;;;;;;;;;;;;21.69;82.87;99303.56;1087195;54;19966;-82
2023/07/29 09:01:56;;;;;;;;;;;;;;;21.72;82.61;99295.75;1087252;47;19942;-84
2023/07/29 09:03:06;;;;;;;;;;;;;;;21.73;82.14;99293.88;1087316;54;19951;-84
2023/07/29 09:04:07;;;;;;;;;;;;;;;21.76;81.60;99294.25;1087311;46;19998;-84
2023/07/29 09:05:11;;;;;;;;;;;;;;;21.64;80.48;99299.66;1087673;39;20301;-85
2023/07/29 09:06:14;;;;;;;;;;;;;;;21.77;80.92;99295.06;1087099;54;20014;-83
2023/07/29 09:07:19;;;;;;;;;;;;;;;21.82;80.61;99297.91;1087163;54;19946;-82
2023/07/29 09:08:21;;;;;;;;;;;;;;;21.76;80.24;99298.84;1087532;54;19950;-85
2023/07/29 09:09:22;;;;;;;;;;;;;;;21.73;79.73;99296.59;1087231;47;19946;-84
2023/07/29 09:10:28;;;;;;;;;;;;;;;21.78;79.92;99300.25;1087255;54;19943;-84
2023/07/29 09:11:29;;;;;;;;;;;;;;;21.81;80.08;99293.53;1087425;54;19942;-82
2023/07/29 09:12:32;;;;;;;;;;;;;;;21.83;79.17;99291.38;1087589;54;19954;-84
2023/07/29 09:13:33;;;;;;;;;;;;;;;21.87;79.03;99303.44;1087098;47;19978;-85
2023/07/29 09:14:36;;;;;;;;;;;;;;;21.90;78.24;99297.53;1087156;54;19975;-85
2023/07/29 09:15:37;;;;;;;;;;;;;;;21.91;77.33;99298.38;1087017;54;19950;-85
2023/07/29 09:16:40;;;;;;;;;;;;;;;22.01;77.02;99300.50;1087064;54;19943;-85
2023/07/29 09:17:41;;;;;;;;;;;;;;;21.99;77.36;99291.75;1086906;47;20876;-86
2023/07/29 09:18:44;;;;;;;;;;;;;;;22.07;76.95;99300.34;1086790;47;19943;-85
2023/07/29 09:19:47;;;;;;;;;;;;;;;22.15;76.88;99293.72;1087093;54;19942;-86
2023/07/29 09:20:51;;;;;;;;;;;;;;;22.02;76.50;99289.38;1088162;39;20673;-84
2023/07/29 09:21:54;;;;;;;;;;;;;;;22.08;76.50;99296.56;1087264;54;20002;-82
2023/07/29 09:23:00;;;;;;;;;;;;;;;22.06;76.32;99287.00;1087445;54;19975;-84
2023/07/29 09:24:02;;;;;;;;;;;;;;;22.12;75.99;99288.75;1087188;47;19955;-88
2023/07/29 09:25:06;;;;;;;;;;;;;;;22.19;76.43;99294.91;1087234;54;19976;-83
2023/07/29 09:26:07;;;;;;;;;;;;;;;22.33;75.70;99284.56;1087437;54;19951;-82
2023/07/29 09:27:10;;;;;;;;;;;;;;;22.32;75.51;99291.09;1086912;47;19947;-84
2023/07/29 09:28:12;;;;;;;;;;;;;;;22.41;75.32;99289.69;1086884;47;20948;-86
2023/07/29 09:29:15;;;;;;;;;;;;;;;22.38;75.16;99286.56;1088831;39;20174;-84
2023/07/29 09:30:16;;;;;;;;;;;;;;;22.44;75.41;99285.63;1087464;54;19950;-84
2023/07/29 09:31:21;;;;;;;;;;;;;;;22.54;74.83;99277.66;1087062;46;19939;-83
2023/07/29 09:32:23;;;;;;;;;;;;;;;22.60;74.61;99275.88;1087196;47;19986;-85
2023/07/29 09:33:28;;;;;;;;;;;;;;;22.51;74.36;99278.16;1087322;47;19946;-89
2023/07/29 09:34:29;;;;;;;;;;;;;;;22.42;74.17;99285.03;1087326;47;19942;-87
2023/07/29 09:35:34;;;;;;;;;;;;;;;22.48;73.68;99278.66;1087399;54;19943;-88
2023/07/29 09:36:35;;;;;;;;;;;;;;;22.50;73.73;99276.50;1087752;54;19949;-87
2023/07/29 09:37:41;;;;;;;;;;;;;;;22.48;73.12;99280.53;1087308;47;20014;-89
2023/07/29 09:38:44;;;;;;;;;;;;;;;22.51;72.71;99291.75;1087377;46;19998;-88
2023/07/29 09:39:48;;;;;;;;;;;;;;;22.47;73.13;99282.44;1087377;46;19967;-86
2023/07/29 09:41:53;;;;;;;;;;;;;;;22.41;73.10;99288.81;1087691;54;19946;-84
2023/07/29 09:42:55;;;;;;;;;;;;;;;22.38;72.62;99289.31;1087981;47;19926;-86
2023/07/29 09:44:00;;;;;;;;;;;;;;;22.37;72.61;99288.47;1087454;54;19950;-85
2023/07/29 09:45:01;;;;;;;;;;;;;;;22.36;72.39;99289.53;1087586;54;19983;-86
2023/07/29 09:46:06;;;;;;;;;;;;;;;22.34;72.67;99288.94;1087288;47;19943;-85
2023/07/29 09:47:07;;;;;;;;;;;;;;;22.26;72.65;99290.16;1087607;46;19942;-84
2023/07/29 09:48:11;;;;;;;;;;;;;;;22.21;73.00;99295.47;1087311;47;19938;-84
2023/07/29 09:49:12;;;;;;;;;;;;;;;22.14;72.69;99289.34;1090296;39;20572;-83
2023/07/29 09:50:15;;;;;;;;;;;;;;;22.17;72.81;99288.88;1087505;46;20055;-86
2023/07/29 09:51:17;;;;;;;;;;;;;;;22.16;73.31;99289.94;1087343;46;19994;-85
2023/07/29 09:52:20;;;;;;;;;;;;;;;22.11;73.12;99297.97;1087233;46;19949;-87